createdAt,value
2022-11-03T00:00:47.537Z,12.40
2022-11-03T00:03:20.700Z,12.40
2022-11-03T00:05:53.718Z,12.40
2022-11-03T00:08:26.749Z,12.50
2022-11-03T00:10:53.590Z,12.50
2022-11-03T00:13:26.721Z,12.50
2022-11-03T00:15:53.577Z,12.60
2022-11-03T00:18:26.728Z,12.70
2022-11-03T00:21:04.740Z,12.70
2022-11-03T00:23:40.701Z,12.80
2022-11-03T00:26:09.580Z,12.70
2022-11-03T00:28:36.851Z,12.70
2022-11-03T00:31:16.708Z,12.60
2022-11-03T00:33:50.722Z,12.60
2022-11-03T00:36:29.704Z,12.60
2022-11-03T00:38:56.698Z,12.60
2022-11-03T00:41:30.732Z,12.60
2022-11-03T00:43:57.643Z,12.70
2022-11-03T00:46:31.734Z,12.70
2022-11-03T00:48:58.576Z,12.80
2022-11-03T00:51:33.755Z,12.90
2022-11-03T00:54:02.106Z,12.90
2022-11-03T00:56:37.782Z,12.80
2022-11-03T00:59:05.773Z,12.90
2022-11-03T01:01:48.188Z,12.80
2022-11-03T01:04:21.387Z,12.90
2022-11-03T01:06:56.730Z,13.00
2022-11-03T01:09:48.745Z,12.90
2022-11-03T01:12:25.737Z,13.00
2022-11-03T01:14:53.309Z,13.00
2022-11-03T01:17:21.974Z,13.00
2022-11-03T01:19:55.740Z,13.00
2022-11-03T01:22:23.305Z,12.90
2022-11-03T01:24:50.137Z,13.00
2022-11-03T01:27:25.730Z,12.90
2022-11-03T01:29:52.554Z,12.90
2022-11-03T01:32:25.795Z,13.00
2022-11-03T01:34:52.605Z,13.10
2022-11-03T01:37:25.788Z,13.00
2022-11-03T01:39:58.798Z,13.10
2022-11-03T01:42:25.619Z,13.10
2022-11-03T01:44:58.741Z,13.10
2022-11-03T01:47:31.491Z,13.10
2022-11-03T01:50:14.768Z,13.00
2022-11-03T01:52:51.439Z,13.10
2022-11-03T01:55:36.770Z,13.10
2022-11-03T01:58:34.597Z,13.20
2022-11-03T02:01:07.837Z,13.30
2022-11-03T02:03:38.210Z,13.10
2022-11-03T02:06:11.785Z,13.20
2022-11-03T02:08:45.522Z,13.30
2022-11-03T02:11:19.847Z,13.30
2022-11-03T02:13:52.839Z,13.20
2022-11-03T02:16:26.820Z,13.10
2022-11-03T02:18:53.818Z,12.90
2022-11-03T02:22:03.764Z,13.00
2022-11-03T02:24:54.181Z,13.10
2022-11-03T02:27:27.792Z,13.10
2022-11-03T02:30:00.819Z,13.10
2022-11-03T02:32:48.793Z,13.00
2022-11-03T02:35:32.932Z,13.20
2022-11-03T02:38:07.790Z,13.10
2022-11-03T02:40:41.956Z,13.10
2022-11-03T02:43:14.823Z,13.00
2022-11-03T02:45:47.787Z,13.00
2022-11-03T02:48:21.782Z,13.00
2022-11-03T02:50:54.817Z,12.90
2022-11-03T02:53:21.698Z,12.90
2022-11-03T02:56:07.780Z,12.90
2022-11-03T02:59:03.237Z,12.90
2022-11-03T03:01:43.925Z,12.80
2022-11-03T03:04:10.856Z,12.80
2022-11-03T03:06:49.777Z,12.80
2022-11-03T03:09:24.875Z,12.60
2022-11-03T03:11:58.804Z,12.70
2022-11-03T03:14:33.938Z,12.70
2022-11-03T03:17:26.805Z,12.60
2022-11-03T03:20:06.828Z,12.50
2022-11-03T03:22:39.671Z,12.50
2022-11-03T03:25:31.811Z,12.60
2022-11-03T03:28:09.494Z,12.60
2022-11-03T03:30:42.809Z,12.60
2022-11-03T03:33:10.077Z,12.70
2022-11-03T03:35:44.867Z,12.70
2022-11-03T03:38:22.828Z,12.70
2022-11-03T03:40:53.154Z,12.80
2022-11-03T03:43:26.823Z,12.80
2022-11-03T03:45:54.895Z,12.90
2022-11-03T03:48:27.862Z,13.00
2022-11-03T03:50:54.707Z,13.00
2022-11-03T03:53:27.813Z,13.00
2022-11-03T03:55:54.666Z,13.00
2022-11-03T03:58:27.833Z,13.10
2022-11-03T04:01:01.706Z,13.00
2022-11-03T04:03:34.845Z,13.10
2022-11-03T04:06:01.672Z,13.10
2022-11-03T04:08:34.859Z,13.10
2022-11-03T04:11:01.699Z,13.20
2022-11-03T04:13:28.626Z,13.20
2022-11-03T04:16:01.839Z,13.20
2022-11-03T04:18:28.723Z,13.20
2022-11-03T04:20:55.554Z,13.10
2022-11-03T04:23:28.835Z,13.10
2022-11-03T04:25:56.382Z,13.20
2022-11-03T04:28:30.852Z,13.10
2022-11-03T04:30:59.313Z,13.10
2022-11-03T04:33:26.227Z,13.00
2022-11-03T04:35:59.841Z,13.00
2022-11-03T04:38:27.407Z,13.10
2022-11-03T04:41:04.880Z,13.00
2022-11-03T04:43:36.312Z,13.10
2022-11-03T04:46:09.886Z,13.30
2022-11-03T04:48:36.754Z,13.20
2022-11-03T04:51:19.908Z,13.20
2022-11-03T04:54:08.896Z,13.10
2022-11-03T04:56:41.882Z,13.10
2022-11-03T04:59:12.280Z,13.10
2022-11-03T05:01:46.116Z,13.20
2022-11-03T05:04:21.868Z,13.30
2022-11-03T05:06:58.869Z,13.20
2022-11-03T05:09:28.360Z,13.20
2022-11-03T05:12:01.898Z,13.10
2022-11-03T05:14:29.288Z,13.10
2022-11-03T05:17:02.881Z,13.20
2022-11-03T05:19:39.432Z,13.20
2022-11-03T05:22:12.888Z,13.10
2022-11-03T05:24:39.725Z,13.10
2022-11-03T05:27:06.565Z,13.10
2022-11-03T05:29:42.858Z,13.20
2022-11-03T05:32:33.081Z,13.20
2022-11-03T05:35:06.912Z,13.10
2022-11-03T05:37:34.628Z,13.20
2022-11-03T05:40:30.904Z,13.30
2022-11-03T05:43:01.663Z,13.40
2022-11-03T05:45:41.902Z,13.30
2022-11-03T05:48:38.896Z,13.30
2022-11-03T05:51:46.895Z,13.40
2022-11-03T05:54:30.950Z,13.50
2022-11-03T05:57:03.913Z,13.40
2022-11-03T05:59:36.928Z,13.40
2022-11-03T06:02:03.916Z,13.40
2022-11-03T06:04:34.197Z,13.50
2022-11-03T06:07:10.893Z,13.50
2022-11-03T06:09:37.740Z,13.70
2022-11-03T06:12:11.915Z,13.60
2022-11-03T06:14:38.757Z,13.50
2022-11-03T06:17:10.365Z,13.60
2022-11-03T06:19:44.939Z,13.50
2022-11-03T06:22:30.047Z,13.60
2022-11-03T06:25:15.946Z,13.40
2022-11-03T06:27:42.774Z,13.50
2022-11-03T06:30:32.028Z,13.40
2022-11-03T06:33:01.857Z,13.40
2022-11-03T06:35:34.912Z,13.40
2022-11-03T06:38:01.761Z,13.50
2022-11-03T06:40:43.908Z,13.70
2022-11-03T06:43:24.332Z,13.80
2022-11-03T06:46:03.981Z,13.70
2022-11-03T06:48:30.923Z,13.60
2022-11-03T06:51:04.942Z,13.60
2022-11-03T06:53:32.829Z,13.70
2022-11-03T06:56:05.942Z,13.80
2022-11-03T06:58:36.425Z,13.70
2022-11-03T07:01:29.169Z,13.70
2022-11-03T07:04:02.272Z,13.80
2022-11-03T07:06:41.968Z,14.00
2022-11-03T07:09:18.345Z,14.00
2022-11-03T07:11:59.941Z,14.10
2022-11-03T07:14:32.228Z,14.00
2022-11-03T07:17:11.310Z,14.00
2022-11-03T07:19:48.046Z,14.20
2022-11-03T07:22:31.961Z,14.20
2022-11-03T07:25:00.921Z,14.30
2022-11-03T07:27:37.969Z,14.40
2022-11-03T07:30:35.981Z,14.30
2022-11-03T07:33:27.985Z,14.40
2022-11-03T07:36:14.246Z,14.70
2022-11-03T07:38:48.944Z,14.90
2022-11-03T07:41:31.308Z,14.70
2022-11-03T07:44:07.972Z,14.60
2022-11-03T07:46:34.802Z,14.70
2022-11-03T07:49:07.963Z,14.80
2022-11-03T07:51:44.030Z,14.90
2022-11-03T07:54:34.012Z,14.80
2022-11-03T07:57:24.229Z,15.10
2022-11-03T08:00:01.617Z,15.20
2022-11-03T08:02:44.934Z,15.40
2022-11-03T08:07:50.995Z,15.70
2022-11-03T08:10:17.830Z,15.80
2022-11-03T08:12:50.980Z,16.00
2022-11-03T08:15:17.850Z,16.30
2022-11-03T08:17:55.921Z,16.60
2022-11-03T08:20:23.015Z,16.60
2022-11-03T08:25:43.528Z,16.50
2022-11-03T08:28:16.980Z,16.90
2022-11-03T08:30:43.806Z,17.30
2022-11-03T08:33:10.656Z,17.30
2022-11-03T08:35:43.977Z,17.30
2022-11-03T08:38:10.845Z,17.40
2022-11-03T08:40:44.020Z,17.40
2022-11-03T08:43:10.842Z,17.20
2022-11-03T08:45:43.982Z,17.30
2022-11-03T08:48:10.937Z,17.40
2022-11-03T08:50:43.987Z,17.50
2022-11-03T08:53:10.835Z,17.80
2022-11-03T08:55:44.034Z,18.00
2022-11-03T08:58:17.028Z,17.80
2022-11-03T09:00:43.931Z,17.70
2022-11-03T09:03:17.092Z,17.60
2022-11-03T09:05:44.041Z,17.50
2022-11-03T09:11:03.889Z,17.50
2022-11-03T09:13:37.054Z,17.50
2022-11-03T09:16:03.944Z,17.80
2022-11-03T09:18:37.027Z,17.80
2022-11-03T09:21:10.055Z,18.00
2022-11-03T09:23:36.897Z,18.00
2022-11-03T09:26:03.758Z,18.00
2022-11-03T09:28:37.026Z,18.00
2022-11-03T09:31:03.864Z,18.10
2022-11-03T09:33:30.705Z,17.90
2022-11-03T09:36:04.031Z,18.00
2022-11-03T09:38:30.857Z,18.10
2022-11-03T09:41:09.633Z,18.20
2022-11-03T09:43:46.324Z,18.20
2022-11-03T09:46:20.246Z,18.40
2022-11-03T09:48:54.059Z,18.60
2022-11-03T09:51:21.729Z,18.60
2022-11-03T09:53:48.798Z,18.80
2022-11-03T09:56:28.034Z,18.70
2022-11-03T09:58:55.022Z,18.80
2022-11-03T10:01:22.903Z,18.90
2022-11-03T10:03:56.053Z,18.60
2022-11-03T10:06:23.574Z,18.80
2022-11-03T10:08:57.039Z,18.90
2022-11-03T10:11:23.907Z,18.80
2022-11-03T10:14:00.079Z,18.80
2022-11-03T10:16:26.998Z,18.70
2022-11-03T10:19:00.119Z,18.80
2022-11-03T10:21:33.062Z,18.80
2022-11-03T10:24:07.069Z,18.90
2022-11-03T10:26:53.679Z,19.20
2022-11-03T10:29:33.453Z,19.60
2022-11-03T10:32:02.780Z,19.60
2022-11-03T10:34:44.062Z,19.50
2022-11-03T10:37:17.400Z,19.60
2022-11-03T10:39:51.093Z,19.40
2022-11-03T10:42:33.777Z,19.50
2022-11-03T10:45:26.070Z,19.70
2022-11-03T10:48:12.097Z,19.60
2022-11-03T10:50:40.032Z,19.50
2022-11-03T10:53:20.173Z,19.40
2022-11-03T10:55:53.066Z,19.30
2022-11-03T10:58:26.086Z,19.50
2022-11-03T11:00:52.977Z,19.50
2022-11-03T11:03:26.085Z,19.50
2022-11-03T11:05:52.909Z,19.40
2022-11-03T11:08:30.229Z,19.40
2022-11-03T11:10:57.127Z,19.50
2022-11-03T11:13:33.089Z,19.80
2022-11-03T11:16:01.542Z,19.90
2022-11-03T11:18:31.405Z,20.00
2022-11-03T11:21:06.082Z,20.00
2022-11-03T11:23:36.022Z,20.00
2022-11-03T11:26:40.100Z,19.80
2022-11-03T11:29:09.992Z,19.70
2022-11-03T11:31:44.120Z,19.60
2022-11-03T11:34:10.882Z,19.60
2022-11-03T11:36:49.124Z,19.60
2022-11-03T11:39:28.037Z,19.40
2022-11-03T11:42:28.133Z,19.60
2022-11-03T11:45:01.487Z,19.60
2022-11-03T11:47:50.120Z,19.60
2022-11-03T11:50:23.265Z,19.30
2022-11-03T11:53:08.519Z,19.20
2022-11-03T11:55:58.967Z,19.20
2022-11-03T11:58:51.176Z,19.40
2022-11-03T12:01:31.160Z,19.50
2022-11-03T12:04:12.223Z,19.40
2022-11-03T12:06:47.167Z,19.60
2022-11-03T12:09:18.217Z,19.30
2022-11-03T12:12:08.675Z,19.50
2022-11-03T12:14:37.179Z,19.50
2022-11-03T12:17:26.172Z,19.50
2022-11-03T12:19:53.959Z,19.30
2022-11-03T12:22:30.162Z,19.10
2022-11-03T12:25:01.030Z,19.10
2022-11-03T12:27:34.127Z,19.00
2022-11-03T12:30:10.146Z,18.80
2022-11-03T12:32:43.138Z,18.90
2022-11-03T12:35:10.309Z,18.90
2022-11-03T12:37:37.386Z,18.70
2022-11-03T12:40:11.155Z,18.50
2022-11-03T12:42:44.832Z,18.30
2022-11-03T12:45:18.140Z,18.10
2022-11-03T12:47:51.184Z,18.20
2022-11-03T12:50:24.175Z,18.30
2022-11-03T12:52:51.037Z,18.30
2022-11-03T12:55:17.978Z,18.30
2022-11-03T12:57:51.200Z,18.20
2022-11-03T13:00:25.180Z,18.10
2022-11-03T13:02:52.196Z,18.00
2022-11-03T13:05:26.162Z,17.90
2022-11-03T13:07:59.811Z,17.90
2022-11-03T13:10:33.222Z,18.10
2022-11-03T13:13:00.094Z,17.90
2022-11-03T13:15:33.176Z,18.00
2022-11-03T13:18:12.736Z,18.20
2022-11-03T13:20:47.189Z,18.00
2022-11-03T13:23:17.425Z,17.90
2022-11-03T13:25:54.335Z,17.90
2022-11-03T13:28:21.237Z,17.80
2022-11-03T13:30:54.189Z,17.90
2022-11-03T13:33:27.198Z,17.90
2022-11-03T13:35:54.090Z,17.90
2022-11-03T13:38:27.184Z,17.90
2022-11-03T13:40:57.728Z,17.90
2022-11-03T13:43:32.229Z,17.90
2022-11-03T13:45:59.252Z,17.90
2022-11-03T13:51:19.065Z,17.70
2022-11-03T13:59:36.801Z,17.60
2022-11-03T14:05:11.282Z,17.50
2022-11-03T14:07:38.488Z,17.40
2022-11-03T14:10:12.198Z,17.30
2022-11-03T14:12:39.036Z,17.30
2022-11-03T14:15:17.228Z,17.30
2022-11-03T14:17:44.075Z,17.20
2022-11-03T14:20:18.329Z,17.30
2022-11-03T14:22:45.226Z,17.20
2022-11-03T14:25:12.092Z,17.20
2022-11-03T14:27:45.267Z,17.20
2022-11-03T14:30:13.017Z,17.20
2022-11-03T14:32:46.237Z,17.10
2022-11-03T14:35:13.060Z,17.20
2022-11-03T14:37:47.244Z,17.10
2022-11-03T14:40:14.107Z,17.10
2022-11-03T14:42:40.940Z,17.00
2022-11-03T14:45:14.251Z,17.00
2022-11-03T14:47:41.205Z,16.90
2022-11-03T14:50:08.255Z,16.90
2022-11-03T14:52:41.223Z,16.80
2022-11-03T14:55:09.042Z,16.80
2022-11-03T14:57:42.246Z,16.80
2022-11-03T15:00:10.054Z,16.60
2022-11-03T15:02:43.245Z,16.60
2022-11-03T15:05:10.106Z,16.50
2022-11-03T15:07:36.985Z,16.50
2022-11-03T15:10:10.350Z,16.60
2022-11-03T15:12:43.262Z,16.60
2022-11-03T15:15:10.666Z,16.60
2022-11-03T15:17:44.328Z,16.60
2022-11-03T15:20:11.587Z,16.60
2022-11-03T15:25:33.694Z,16.50
2022-11-03T15:28:02.996Z,16.40
2022-11-03T15:30:36.258Z,16.40
2022-11-03T15:33:03.209Z,16.40
2022-11-03T15:35:36.309Z,16.40
2022-11-03T15:38:03.256Z,16.40
2022-11-03T15:40:36.270Z,16.30
2022-11-03T15:43:03.353Z,16.30
2022-11-03T15:45:37.278Z,16.40
2022-11-03T15:48:04.515Z,16.30
2022-11-03T15:50:38.292Z,16.30
2022-11-03T15:53:05.147Z,16.30
2022-11-03T15:55:38.278Z,16.30
2022-11-03T15:58:11.284Z,16.30
2022-11-03T16:00:38.134Z,16.30
2022-11-03T16:03:11.403Z,16.20
2022-11-03T16:05:45.303Z,16.20
2022-11-03T16:08:18.286Z,16.10
2022-11-03T16:10:51.797Z,16.20
2022-11-03T16:13:28.293Z,16.10
2022-11-03T16:15:55.136Z,16.00
2022-11-03T16:18:22.635Z,16.10
2022-11-03T16:20:56.309Z,16.00
2022-11-03T16:23:23.176Z,16.00
2022-11-03T16:25:50.037Z,16.00
2022-11-03T16:28:23.314Z,15.90
2022-11-03T16:30:54.285Z,15.90
2022-11-03T16:33:28.293Z,16.00
2022-11-03T16:35:55.132Z,16.00
2022-11-03T16:38:28.337Z,16.00
2022-11-03T16:41:01.365Z,16.00
2022-11-03T16:43:28.222Z,16.00
2022-11-03T16:45:56.142Z,16.00
2022-11-03T16:48:29.361Z,16.00
2022-11-03T16:50:56.780Z,16.00
2022-11-03T16:53:31.372Z,16.00
2022-11-03T16:55:58.276Z,16.10
2022-11-03T16:58:31.368Z,16.00
2022-11-03T17:00:58.289Z,15.90
2022-11-03T17:03:31.432Z,15.90
2022-11-03T17:06:13.384Z,15.90
2022-11-03T17:08:52.775Z,15.90
2022-11-03T17:11:27.597Z,15.90
2022-11-03T17:16:39.397Z,15.80
2022-11-03T17:19:06.287Z,15.80
2022-11-03T17:21:39.372Z,15.70
2022-11-03T17:24:07.212Z,15.80
2022-11-03T17:27:03.393Z,15.80
2022-11-03T17:29:51.367Z,15.70
2022-11-03T17:32:29.900Z,15.70
2022-11-03T17:35:04.399Z,15.70
2022-11-03T17:37:31.315Z,15.70
2022-11-03T17:40:04.391Z,15.80
2022-11-03T17:42:44.400Z,15.80
2022-11-03T17:45:24.402Z,15.80
2022-11-03T17:47:51.612Z,15.80
2022-11-03T17:50:27.409Z,15.80
2022-11-03T17:53:00.376Z,15.80
2022-11-03T17:55:31.837Z,15.80
2022-11-03T17:58:07.401Z,15.70
2022-11-03T18:00:40.497Z,15.60
2022-11-03T18:03:19.403Z,15.50
2022-11-03T18:05:46.275Z,15.40
2022-11-03T18:08:19.438Z,15.30
2022-11-03T18:10:55.430Z,15.20
2022-11-03T18:13:30.142Z,15.20
2022-11-03T18:16:17.394Z,15.20
2022-11-03T18:18:51.412Z,15.10
2022-11-03T18:21:20.399Z,15.10
2022-11-03T18:23:53.402Z,15.10
2022-11-03T18:26:25.130Z,15.00
2022-11-03T18:28:52.186Z,14.90
2022-11-03T18:31:44.385Z,14.90
2022-11-03T18:34:31.459Z,14.70
2022-11-03T18:36:58.350Z,14.70
2022-11-03T18:39:33.416Z,14.60
2022-11-03T18:42:00.306Z,14.60
2022-11-03T18:44:35.445Z,14.50
2022-11-03T18:47:08.430Z,14.40
2022-11-03T18:49:35.418Z,14.40
2022-11-03T18:52:11.473Z,14.50
2022-11-03T18:54:38.366Z,14.70
2022-11-03T18:57:11.429Z,14.60
2022-11-03T18:59:40.744Z,14.60
2022-11-03T19:02:27.480Z,14.50
2022-11-03T19:04:54.489Z,14.40
2022-11-03T19:07:38.438Z,14.40
2022-11-03T19:10:13.422Z,14.40
2022-11-03T19:12:41.257Z,14.30
2022-11-03T19:15:23.485Z,14.30
2022-11-03T19:17:52.417Z,14.30
2022-11-03T19:20:25.483Z,14.30
2022-11-03T19:22:52.420Z,14.30
2022-11-03T19:25:19.279Z,14.30
2022-11-03T19:27:53.426Z,14.30
2022-11-03T19:30:20.456Z,14.30
2022-11-03T19:32:59.434Z,14.20
2022-11-03T19:35:32.351Z,14.20
2022-11-03T19:38:11.579Z,14.20
2022-11-03T19:40:38.646Z,14.20
2022-11-03T19:43:15.457Z,14.20
2022-11-03T19:45:42.388Z,14.20
2022-11-03T19:48:24.164Z,14.20
2022-11-03T19:50:51.827Z,14.20
2022-11-03T19:53:34.473Z,14.10
2022-11-03T19:56:07.403Z,14.00
2022-11-03T19:58:34.312Z,14.00
2022-11-03T20:01:08.852Z,13.90
2022-11-03T20:03:36.498Z,13.90
2022-11-03T20:06:12.177Z,14.00
2022-11-03T20:08:41.059Z,14.00
2022-11-03T20:11:14.456Z,14.00
2022-11-03T20:13:42.838Z,13.90
2022-11-03T20:16:21.432Z,13.90
2022-11-03T20:18:48.310Z,13.90
2022-11-03T20:21:22.463Z,13.80
2022-11-03T20:23:49.575Z,13.90
2022-11-03T20:26:22.085Z,13.90
2022-11-03T20:28:56.465Z,13.90
2022-11-03T20:31:23.380Z,13.90
2022-11-03T20:33:50.280Z,13.90
2022-11-03T20:36:25.497Z,13.90
2022-11-03T20:38:53.512Z,13.90
2022-11-03T20:41:20.372Z,13.90
2022-11-03T20:43:54.476Z,13.90
2022-11-03T20:46:30.019Z,13.90
2022-11-03T20:49:03.451Z,13.90
2022-11-03T20:51:40.991Z,13.90
2022-11-03T20:54:23.454Z,13.90
2022-11-03T20:56:50.377Z,13.90
2022-11-03T20:59:24.506Z,14.00
2022-11-03T21:01:52.972Z,13.90
2022-11-03T21:04:26.514Z,14.00
2022-11-03T21:06:53.415Z,14.00
2022-11-03T21:09:20.692Z,14.00
2022-11-03T21:11:54.535Z,14.10
2022-11-03T21:14:26.724Z,14.20
2022-11-03T21:17:00.500Z,14.10
2022-11-03T21:19:29.841Z,14.10
2022-11-03T21:22:03.510Z,14.00
2022-11-03T21:24:30.446Z,14.00
2022-11-03T21:26:57.317Z,13.90
2022-11-03T21:29:57.747Z,13.90
2022-11-03T21:32:17.541Z,14.00
2022-11-03T21:34:51.523Z,14.00
2022-11-03T21:37:19.031Z,14.10
2022-11-03T21:39:53.666Z,14.10
2022-11-03T21:42:20.505Z,14.10
2022-11-03T21:44:53.474Z,14.10
2022-11-03T21:47:20.346Z,14.10
2022-11-03T21:49:55.608Z,14.10
2022-11-03T21:52:23.021Z,14.20
2022-11-03T21:54:56.504Z,14.30
2022-11-03T21:57:29.483Z,14.30
2022-11-03T22:00:03.482Z,14.30
2022-11-03T22:02:36.527Z,14.10
2022-11-03T22:05:08.153Z,14.10
2022-11-03T22:07:44.509Z,14.10
2022-11-03T22:10:11.789Z,14.20
2022-11-03T22:12:38.620Z,14.10
2022-11-03T22:15:12.515Z,14.10
2022-11-03T22:17:39.333Z,14.00
2022-11-03T22:20:13.482Z,13.90
2022-11-03T22:22:40.321Z,13.80
2022-11-03T22:25:15.508Z,13.70
2022-11-03T22:27:48.518Z,13.70
2022-11-03T22:30:15.373Z,13.60
2022-11-03T22:32:48.526Z,13.60
2022-11-03T22:35:21.521Z,13.50
2022-11-03T22:37:48.365Z,13.50
2022-11-03T22:40:21.554Z,13.60
2022-11-03T22:42:48.387Z,13.70
2022-11-03T22:45:21.538Z,13.60
2022-11-03T22:47:48.388Z,13.70
2022-11-03T22:50:21.516Z,13.60
2022-11-03T22:52:48.366Z,13.70
2022-11-03T22:55:21.533Z,13.50
2022-11-03T22:57:48.456Z,13.60
2022-11-03T23:00:21.821Z,13.80
2022-11-03T23:02:55.227Z,13.70
2022-11-03T23:05:28.582Z,13.80
2022-11-03T23:07:55.431Z,13.80
2022-11-03T23:10:28.576Z,13.90
2022-11-03T23:12:55.550Z,13.90
2022-11-03T23:15:28.554Z,13.90
2022-11-03T23:18:01.634Z,14.00
2022-11-03T23:20:28.487Z,13.90
2022-11-03T23:23:01.606Z,14.00
2022-11-03T23:25:34.869Z,13.90
2022-11-03T23:28:08.549Z,13.90
2022-11-03T23:30:41.713Z,13.90
2022-11-03T23:33:16.001Z,13.90
2022-11-03T23:35:42.949Z,14.00
2022-11-03T23:38:16.577Z,13.90
2022-11-03T23:40:43.411Z,13.90
2022-11-03T23:43:10.262Z,13.90
2022-11-03T23:45:43.582Z,13.80
2022-11-03T23:48:16.600Z,13.90
2022-11-03T23:50:43.887Z,13.90
2022-11-03T23:53:17.565Z,14.00
2022-11-03T23:55:50.586Z,14.00
2022-11-03T23:58:17.404Z,14.00
